sensor_id;sensor_type;location;lat;lon;timestamp;temperature;humidity
18043;DHT22;9146;48.074;11.968;2023-09-19T00:00:56;13.50;99.90
18043;DHT22;9146;48.074;11.968;2023-09-19T00:03:23;13.50;99.90
18043;DHT22;9146;48.074;11.968;2023-09-19T00:05:52;13.60;99.90
18043;DHT22;9146;48.074;11.968;2023-09-19T00:08:21;13.60;99.90
18043;DHT22;9146;48.074;11.968;2023-09-19T00:10:50;13.60;99.90
18043;DHT22;9146;48.074;11.968;2023-09-19T00:13:19;13.60;99.90
18043;DHT22;9146;48.074;11.968;2023-09-19T00:15:47;13.70;99.90
18043;DHT22;9146;48.074;11.968;2023-09-19T00:18:15;13.70;99.90
18043;DHT22;9146;48.074;11.968;2023-09-19T00:20:43;13.70;99.90
18043;DHT22;9146;48.074;11.968;2023-09-19T00:23:14;13.80;99.90
18043;DHT22;9146;48.074;11.968;2023-09-19T00:25:41;13.80;99.90
18043;DHT22;9146;48.074;11.968;2023-09-19T00:28:08;13.80;99.90
18043;DHT22;9146;48.074;11.968;2023-09-19T00:30:35;13.80;99.90
18043;DHT22;9146;48.074;11.968;2023-09-19T00:33:04;13.80;99.90
18043;DHT22;9146;48.074;11.968;2023-09-19T00:35:33;13.80;99.90
18043;DHT22;9146;48.074;11.968;2023-09-19T00:38:02;13.80;99.90
18043;DHT22;9146;48.074;11.968;2023-09-19T00:40:31;13.80;99.90
18043;DHT22;9146;48.074;11.968;2023-09-19T00:42:58;13.80;99.90
18043;DHT22;9146;48.074;11.968;2023-09-19T00:45:27;13.80;99.90
18043;DHT22;9146;48.074;11.968;2023-09-19T00:47:55;13.80;99.90
18043;DHT22;9146;48.074;11.968;2023-09-19T00:50:25;13.80;99.90
18043;DHT22;9146;48.074;11.968;2023-09-19T00:52:55;13.80;99.90
18043;DHT22;9146;48.074;11.968;2023-09-19T00:55:24;13.80;99.90
18043;DHT22;9146;48.074;11.968;2023-09-19T00:57:52;13.80;99.90
18043;DHT22;9146;48.074;11.968;2023-09-19T01:00:22;13.90;99.90
18043;DHT22;9146;48.074;11.968;2023-09-19T01:02:49;13.80;99.90
18043;DHT22;9146;48.074;11.968;2023-09-19T01:05:16;13.80;99.90
18043;DHT22;9146;48.074;11.968;2023-09-19T01:07:44;13.80;99.90
18043;DHT22;9146;48.074;11.968;2023-09-19T01:10:12;13.80;99.90
18043;DHT22;9146;48.074;11.968;2023-09-19T01:12:47;13.80;99.90
18043;DHT22;9146;48.074;11.968;2023-09-19T01:15:22;13.80;99.90
18043;DHT22;9146;48.074;11.968;2023-09-19T01:17:57;13.80;99.90
18043;DHT22;9146;48.074;11.968;2023-09-19T01:20:33;13.80;99.90
18043;DHT22;9146;48.074;11.968;2023-09-19T01:23:10;13.80;99.90
18043;DHT22;9146;48.074;11.968;2023-09-19T01:26:06;13.80;99.90
18043;DHT22;9146;48.074;11.968;2023-09-19T01:28:45;13.80;99.90
18043;DHT22;9146;48.074;11.968;2023-09-19T01:31:21;13.70;99.90
18043;DHT22;9146;48.074;11.968;2023-09-19T01:33:58;13.70;99.90
18043;DHT22;9146;48.074;11.968;2023-09-19T01:36:31;13.70;99.90
18043;DHT22;9146;48.074;11.968;2023-09-19T01:39:02;13.70;99.90
18043;DHT22;9146;48.074;11.968;2023-09-19T01:41:45;13.70;99.90
18043;DHT22;9146;48.074;11.968;2023-09-19T01:44:21;13.70;99.90
18043;DHT22;9146;48.074;11.968;2023-09-19T01:46:51;13.70;99.90
18043;DHT22;9146;48.074;11.968;2023-09-19T01:49:27;13.70;99.90
18043;DHT22;9146;48.074;11.968;2023-09-19T01:52:02;13.70;99.90
18043;DHT22;9146;48.074;11.968;2023-09-19T01:54:33;13.70;99.90
18043;DHT22;9146;48.074;11.968;2023-09-19T01:57:09;13.70;99.90
18043;DHT22;9146;48.074;11.968;2023-09-19T01:59:45;13.70;99.90
18043;DHT22;9146;48.074;11.968;2023-09-19T02:02:17;13.70;99.90
18043;DHT22;9146;48.074;11.968;2023-09-19T02:04:44;13.70;99.90
18043;DHT22;9146;48.074;11.968;2023-09-19T02:07:11;13.80;99.90
18043;DHT22;9146;48.074;11.968;2023-09-19T02:09:39;13.80;99.90
18043;DHT22;9146;48.074;11.968;2023-09-19T02:12:08;13.80;99.90
18043;DHT22;9146;48.074;11.968;2023-09-19T02:14:35;13.80;99.90
18043;DHT22;9146;48.074;11.968;2023-09-19T02:17:03;13.80;99.90
18043;DHT22;9146;48.074;11.968;2023-09-19T02:19:38;13.80;99.90
18043;DHT22;9146;48.074;11.968;2023-09-19T02:22:07;13.80;99.90
18043;DHT22;9146;48.074;11.968;2023-09-19T02:24:36;13.80;99.90
18043;DHT22;9146;48.074;11.968;2023-09-19T02:27:04;13.80;99.90
18043;DHT22;9146;48.074;11.968;2023-09-19T02:29:31;13.80;99.90
18043;DHT22;9146;48.074;11.968;2023-09-19T02:32:00;13.80;99.90
18043;DHT22;9146;48.074;11.968;2023-09-19T02:34:28;13.80;99.90
18043;DHT22;9146;48.074;11.968;2023-09-19T02:36:56;13.90;99.90
18043;DHT22;9146;48.074;11.968;2023-09-19T02:39:23;13.90;99.90
18043;DHT22;9146;48.074;11.968;2023-09-19T02:41:50;13.90;99.90
18043;DHT22;9146;48.074;11.968;2023-09-19T02:44:17;14.00;99.90
18043;DHT22;9146;48.074;11.968;2023-09-19T02:46:49;14.00;99.90
18043;DHT22;9146;48.074;11.968;2023-09-19T02:49:16;14.00;99.90
18043;DHT22;9146;48.074;11.968;2023-09-19T02:51:44;14.00;99.90
18043;DHT22;9146;48.074;11.968;2023-09-19T02:54:13;14.00;99.90
18043;DHT22;9146;48.074;11.968;2023-09-19T02:56:41;14.10;99.90
18043;DHT22;9146;48.074;11.968;2023-09-19T02:59:08;14.10;99.90
18043;DHT22;9146;48.074;11.968;2023-09-19T03:01:36;14.10;99.90
18043;DHT22;9146;48.074;11.968;2023-09-19T03:04:04;14.10;99.90
18043;DHT22;9146;48.074;11.968;2023-09-19T03:06:32;14.10;99.90
18043;DHT22;9146;48.074;11.968;2023-09-19T03:08:59;14.20;99.90
18043;DHT22;9146;48.074;11.968;2023-09-19T03:11:28;14.20;99.90
18043;DHT22;9146;48.074;11.968;2023-09-19T03:13:55;14.10;99.90
18043;DHT22;9146;48.074;11.968;2023-09-19T03:16:23;14.20;99.90
18043;DHT22;9146;48.074;11.968;2023-09-19T03:18:51;14.20;99.90
18043;DHT22;9146;48.074;11.968;2023-09-19T03:21:17;14.20;99.90
18043;DHT22;9146;48.074;11.968;2023-09-19T03:23:45;14.20;99.90
18043;DHT22;9146;48.074;11.968;2023-09-19T03:26:12;14.10;99.90
18043;DHT22;9146;48.074;11.968;2023-09-19T03:28:43;14.10;99.90
18043;DHT22;9146;48.074;11.968;2023-09-19T03:31:11;14.10;99.90
18043;DHT22;9146;48.074;11.968;2023-09-19T03:33:38;14.10;99.90
18043;DHT22;9146;48.074;11.968;2023-09-19T03:36:05;14.10;99.90
18043;DHT22;9146;48.074;11.968;2023-09-19T03:38:33;14.10;99.90
18043;DHT22;9146;48.074;11.968;2023-09-19T03:41:00;14.10;99.90
18043;DHT22;9146;48.074;11.968;2023-09-19T03:43:27;14.10;99.90
18043;DHT22;9146;48.074;11.968;2023-09-19T03:46:01;14.10;99.90
18043;DHT22;9146;48.074;11.968;2023-09-19T03:48:29;14.10;99.90
18043;DHT22;9146;48.074;11.968;2023-09-19T03:50:56;14.00;99.90
18043;DHT22;9146;48.074;11.968;2023-09-19T03:53:23;14.00;99.90
18043;DHT22;9146;48.074;11.968;2023-09-19T03:55:50;14.00;99.90
18043;DHT22;9146;48.074;11.968;2023-09-19T03:58:17;14.00;99.90
18043;DHT22;9146;48.074;11.968;2023-09-19T04:00:45;14.00;99.90
18043;DHT22;9146;48.074;11.968;2023-09-19T04:03:15;14.00;99.90
18043;DHT22;9146;48.074;11.968;2023-09-19T04:05:46;14.00;99.90
18043;DHT22;9146;48.074;11.968;2023-09-19T04:08:13;14.00;99.90
18043;DHT22;9146;48.074;11.968;2023-09-19T04:10:42;14.00;99.90
18043;DHT22;9146;48.074;11.968;2023-09-19T04:13:10;14.00;99.90
18043;DHT22;9146;48.074;11.968;2023-09-19T04:15:37;14.00;99.90
18043;DHT22;9146;48.074;11.968;2023-09-19T04:18:05;14.00;99.90
18043;DHT22;9146;48.074;11.968;2023-09-19T04:20:34;14.10;99.90
18043;DHT22;9146;48.074;11.968;2023-09-19T04:23:01;14.10;99.90
18043;DHT22;9146;48.074;11.968;2023-09-19T04:25:30;14.10;99.90
18043;DHT22;9146;48.074;11.968;2023-09-19T04:27:57;14.10;99.90
18043;DHT22;9146;48.074;11.968;2023-09-19T04:30:24;14.10;99.90
18043;DHT22;9146;48.074;11.968;2023-09-19T04:32:52;14.10;99.90
18043;DHT22;9146;48.074;11.968;2023-09-19T04:35:19;14.10;99.90
18043;DHT22;9146;48.074;11.968;2023-09-19T04:37:48;14.10;99.90
18043;DHT22;9146;48.074;11.968;2023-09-19T04:40:15;14.10;99.90
18043;DHT22;9146;48.074;11.968;2023-09-19T04:42:43;14.10;99.90
18043;DHT22;9146;48.074;11.968;2023-09-19T04:45:10;14.10;99.90
18043;DHT22;9146;48.074;11.968;2023-09-19T04:47:39;14.10;99.90
18043;DHT22;9146;48.074;11.968;2023-09-19T04:50:08;14.10;99.90
18043;DHT22;9146;48.074;11.968;2023-09-19T04:52:39;14.00;99.90
18043;DHT22;9146;48.074;11.968;2023-09-19T04:55:11;14.00;99.90
18043;DHT22;9146;48.074;11.968;2023-09-19T04:57:43;14.00;99.90
18043;DHT22;9146;48.074;11.968;2023-09-19T05:00:12;13.90;99.90
18043;DHT22;9146;48.074;11.968;2023-09-19T05:02:40;13.90;99.90
18043;DHT22;9146;48.074;11.968;2023-09-19T05:05:08;13.90;99.90
18043;DHT22;9146;48.074;11.968;2023-09-19T05:07:36;14.00;99.90
18043;DHT22;9146;48.074;11.968;2023-09-19T05:10:04;14.00;99.90
18043;DHT22;9146;48.074;11.968;2023-09-19T05:12:34;14.00;99.90
18043;DHT22;9146;48.074;11.968;2023-09-19T05:15:01;14.00;99.90
18043;DHT22;9146;48.074;11.968;2023-09-19T05:17:29;14.10;99.90
18043;DHT22;9146;48.074;11.968;2023-09-19T05:19:56;14.10;99.90
18043;DHT22;9146;48.074;11.968;2023-09-19T05:22:26;14.10;99.90
18043;DHT22;9146;48.074;11.968;2023-09-19T05:24:54;14.10;99.90
18043;DHT22;9146;48.074;11.968;2023-09-19T05:27:20;14.20;99.90
18043;DHT22;9146;48.074;11.968;2023-09-19T05:29:49;14.20;99.90
18043;DHT22;9146;48.074;11.968;2023-09-19T05:32:18;14.20;99.90
18043;DHT22;9146;48.074;11.968;2023-09-19T05:34:48;14.20;99.90
18043;DHT22;9146;48.074;11.968;2023-09-19T05:37:18;14.30;99.90
18043;DHT22;9146;48.074;11.968;2023-09-19T05:39:45;14.30;99.90
18043;DHT22;9146;48.074;11.968;2023-09-19T05:42:12;14.30;99.90
18043;DHT22;9146;48.074;11.968;2023-09-19T05:44:39;14.40;99.90
18043;DHT22;9146;48.074;11.968;2023-09-19T05:47:07;14.50;99.90
18043;DHT22;9146;48.074;11.968;2023-09-19T05:49:35;14.60;99.90
18043;DHT22;9146;48.074;11.968;2023-09-19T05:52:05;14.70;99.90
18043;DHT22;9146;48.074;11.968;2023-09-19T05:54:32;14.70;99.90
18043;DHT22;9146;48.074;11.968;2023-09-19T05:56:59;14.80;99.90
18043;DHT22;9146;48.074;11.968;2023-09-19T05:59:27;14.80;99.90
18043;DHT22;9146;48.074;11.968;2023-09-19T06:01:54;14.90;99.90
18043;DHT22;9146;48.074;11.968;2023-09-19T06:04:22;14.90;99.90
18043;DHT22;9146;48.074;11.968;2023-09-19T06:06:51;15.00;99.90
18043;DHT22;9146;48.074;11.968;2023-09-19T06:09:19;15.00;99.90
18043;DHT22;9146;48.074;11.968;2023-09-19T06:11:47;15.10;99.90
18043;DHT22;9146;48.074;11.968;2023-09-19T06:14:14;15.10;99.90
18043;DHT22;9146;48.074;11.968;2023-09-19T06:16:43;15.10;99.90
18043;DHT22;9146;48.074;11.968;2023-09-19T06:19:10;15.10;99.90
18043;DHT22;9146;48.074;11.968;2023-09-19T06:21:39;15.10;99.90
18043;DHT22;9146;48.074;11.968;2023-09-19T06:24:06;15.10;99.90
18043;DHT22;9146;48.074;11.968;2023-09-19T06:26:33;15.10;99.90
18043;DHT22;9146;48.074;11.968;2023-09-19T06:29:00;15.10;99.90
18043;DHT22;9146;48.074;11.968;2023-09-19T06:31:33;15.10;99.90
18043;DHT22;9146;48.074;11.968;2023-09-19T06:33:59;15.20;99.90
18043;DHT22;9146;48.074;11.968;2023-09-19T06:36:26;15.20;99.90
18043;DHT22;9146;48.074;11.968;2023-09-19T06:38:56;15.30;99.90
18043;DHT22;9146;48.074;11.968;2023-09-19T06:41:23;15.30;99.90
18043;DHT22;9146;48.074;11.968;2023-09-19T06:43:50;15.40;99.90
18043;DHT22;9146;48.074;11.968;2023-09-19T06:46:19;15.50;99.90
18043;DHT22;9146;48.074;11.968;2023-09-19T06:48:46;15.70;99.90
18043;DHT22;9146;48.074;11.968;2023-09-19T06:51:14;15.80;99.90
18043;DHT22;9146;48.074;11.968;2023-09-19T06:53:42;15.90;99.90
18043;DHT22;9146;48.074;11.968;2023-09-19T06:56:10;16.00;99.90
18043;DHT22;9146;48.074;11.968;2023-09-19T06:58:37;16.00;99.90
18043;DHT22;9146;48.074;11.968;2023-09-19T07:01:04;16.10;99.90
18043;DHT22;9146;48.074;11.968;2023-09-19T07:03:31;16.20;99.90
18043;DHT22;9146;48.074;11.968;2023-09-19T07:05:59;16.30;99.90
18043;DHT22;9146;48.074;11.968;2023-09-19T07:08:26;16.50;99.90
18043;DHT22;9146;48.074;11.968;2023-09-19T07:10:53;16.60;99.90
18043;DHT22;9146;48.074;11.968;2023-09-19T07:13:24;16.70;99.90
18043;DHT22;9146;48.074;11.968;2023-09-19T07:15:51;16.90;99.90
18043;DHT22;9146;48.074;11.968;2023-09-19T07:18:18;17.20;99.90
18043;DHT22;9146;48.074;11.968;2023-09-19T07:20:46;17.30;99.90
18043;DHT22;9146;48.074;11.968;2023-09-19T07:23:16;17.30;99.90
18043;DHT22;9146;48.074;11.968;2023-09-19T07:25:43;17.30;99.90
18043;DHT22;9146;48.074;11.968;2023-09-19T07:28:12;17.30;99.90
18043;DHT22;9146;48.074;11.968;2023-09-19T07:30:40;17.40;99.90
18043;DHT22;9146;48.074;11.968;2023-09-19T07:33:08;17.50;99.90
18043;DHT22;9146;48.074;11.968;2023-09-19T07:35:37;17.80;99.90
18043;DHT22;9146;48.074;11.968;2023-09-19T07:38:06;17.90;99.90
18043;DHT22;9146;48.074;11.968;2023-09-19T07:40:33;18.00;99.90
18043;DHT22;9146;48.074;11.968;2023-09-19T07:43:00;18.10;99.90
18043;DHT22;9146;48.074;11.968;2023-09-19T07:45:27;18.20;99.90
18043;DHT22;9146;48.074;11.968;2023-09-19T07:47:57;18.30;99.90
18043;DHT22;9146;48.074;11.968;2023-09-19T07:50:25;18.30;99.90
18043;DHT22;9146;48.074;11.968;2023-09-19T07:52:53;18.40;99.90
18043;DHT22;9146;48.074;11.968;2023-09-19T07:55:20;18.40;99.90
18043;DHT22;9146;48.074;11.968;2023-09-19T07:57:49;18.40;99.90
18043;DHT22;9146;48.074;11.968;2023-09-19T08:00:16;18.40;99.90
18043;DHT22;9146;48.074;11.968;2023-09-19T08:02:44;18.40;99.90
18043;DHT22;9146;48.074;11.968;2023-09-19T08:05:14;18.40;99.90
18043;DHT22;9146;48.074;11.968;2023-09-19T08:07:44;18.40;99.90
18043;DHT22;9146;48.074;11.968;2023-09-19T08:10:14;18.40;99.90
18043;DHT22;9146;48.074;11.968;2023-09-19T08:12:43;18.40;99.90
18043;DHT22;9146;48.074;11.968;2023-09-19T08:15:13;18.40;99.90
18043;DHT22;9146;48.074;11.968;2023-09-19T08:17:40;18.50;99.90
18043;DHT22;9146;48.074;11.968;2023-09-19T08:20:08;18.70;99.90
18043;DHT22;9146;48.074;11.968;2023-09-19T08:22:43;18.90;99.90
18043;DHT22;9146;48.074;11.968;2023-09-19T08:25:12;19.00;99.90
18043;DHT22;9146;48.074;11.968;2023-09-19T08:27:39;19.10;99.90
18043;DHT22;9146;48.074;11.968;2023-09-19T08:30:07;19.10;99.90
18043;DHT22;9146;48.074;11.968;2023-09-19T08:32:34;19.10;99.90
18043;DHT22;9146;48.074;11.968;2023-09-19T08:35:01;19.10;99.90
18043;DHT22;9146;48.074;11.968;2023-09-19T08:37:28;19.10;99.90
18043;DHT22;9146;48.074;11.968;2023-09-19T08:39:56;19.10;99.90
18043;DHT22;9146;48.074;11.968;2023-09-19T08:42:23;19.10;99.90
18043;DHT22;9146;48.074;11.968;2023-09-19T08:44:51;19.10;99.90
18043;DHT22;9146;48.074;11.968;2023-09-19T08:47:28;19.10;99.90
18043;DHT22;9146;48.074;11.968;2023-09-19T08:50:01;19.20;99.90
18043;DHT22;9146;48.074;11.968;2023-09-19T08:52:36;19.30;99.90
18043;DHT22;9146;48.074;11.968;2023-09-19T08:55:06;19.40;99.90
18043;DHT22;9146;48.074;11.968;2023-09-19T08:57:36;19.40;99.90
18043;DHT22;9146;48.074;11.968;2023-09-19T09:00:08;19.50;99.90
18043;DHT22;9146;48.074;11.968;2023-09-19T09:02:37;19.70;99.90
18043;DHT22;9146;48.074;11.968;2023-09-19T09:05:07;19.90;99.90
18043;DHT22;9146;48.074;11.968;2023-09-19T09:07:35;20.10;99.90
18043;DHT22;9146;48.074;11.968;2023-09-19T09:10:04;20.20;99.90
18043;DHT22;9146;48.074;11.968;2023-09-19T09:12:33;20.20;99.90
18043;DHT22;9146;48.074;11.968;2023-09-19T09:15:02;20.20;99.90
18043;DHT22;9146;48.074;11.968;2023-09-19T09:17:30;20.20;99.90
18043;DHT22;9146;48.074;11.968;2023-09-19T09:19:57;20.40;99.90
18043;DHT22;9146;48.074;11.968;2023-09-19T09:22:24;20.40;99.90
18043;DHT22;9146;48.074;11.968;2023-09-19T09:24:52;20.40;99.90
18043;DHT22;9146;48.074;11.968;2023-09-19T09:27:22;20.40;99.90
18043;DHT22;9146;48.074;11.968;2023-09-19T09:29:51;20.30;99.90
18043;DHT22;9146;48.074;11.968;2023-09-19T09:32:21;20.10;99.90
18043;DHT22;9146;48.074;11.968;2023-09-19T09:34:51;20.00;99.90
18043;DHT22;9146;48.074;11.968;2023-09-19T09:37:18;20.10;99.90
18043;DHT22;9146;48.074;11.968;2023-09-19T09:39:50;20.10;99.90
18043;DHT22;9146;48.074;11.968;2023-09-19T09:42:33;20.00;99.90
18043;DHT22;9146;48.074;11.968;2023-09-19T09:45:15;20.00;99.90
18043;DHT22;9146;48.074;11.968;2023-09-19T09:47:44;20.10;99.90
18043;DHT22;9146;48.074;11.968;2023-09-19T09:50:25;20.30;99.90
18043;DHT22;9146;48.074;11.968;2023-09-19T09:52:55;20.60;99.90
18043;DHT22;9146;48.074;11.968;2023-09-19T09:55:59;20.70;99.90
18043;DHT22;9146;48.074;11.968;2023-09-19T09:58:29;20.70;99.90
18043;DHT22;9146;48.074;11.968;2023-09-19T10:00:59;20.50;99.90
18043;DHT22;9146;48.074;11.968;2023-09-19T10:03:35;20.40;99.90
18043;DHT22;9146;48.074;11.968;2023-09-19T10:06:06;20.20;99.90
18043;DHT22;9146;48.074;11.968;2023-09-19T10:09:04;20.10;99.90
18043;DHT22;9146;48.074;11.968;2023-09-19T10:11:46;20.00;99.90
18043;DHT22;9146;48.074;11.968;2023-09-19T10:14:25;20.10;99.90
18043;DHT22;9146;48.074;11.968;2023-09-19T10:16:56;20.20;99.90
18043;DHT22;9146;48.074;11.968;2023-09-19T10:19:30;20.30;99.90
18043;DHT22;9146;48.074;11.968;2023-09-19T10:22:01;20.50;99.90
18043;DHT22;9146;48.074;11.968;2023-09-19T10:24:30;20.70;99.90
18043;DHT22;9146;48.074;11.968;2023-09-19T10:26:59;21.00;99.90
18043;DHT22;9146;48.074;11.968;2023-09-19T10:29:29;21.30;99.90
18043;DHT22;9146;48.074;11.968;2023-09-19T10:32:02;21.50;99.90
18043;DHT22;9146;48.074;11.968;2023-09-19T10:34:31;21.60;99.90
18043;DHT22;9146;48.074;11.968;2023-09-19T10:37:02;21.70;99.90
18043;DHT22;9146;48.074;11.968;2023-09-19T10:39:32;21.80;99.90
18043;DHT22;9146;48.074;11.968;2023-09-19T10:42:03;21.80;99.90
18043;DHT22;9146;48.074;11.968;2023-09-19T10:44:33;21.80;99.90
18043;DHT22;9146;48.074;11.968;2023-09-19T10:47:00;21.90;99.90
18043;DHT22;9146;48.074;11.968;2023-09-19T10:49:32;22.10;99.90
18043;DHT22;9146;48.074;11.968;2023-09-19T10:52:00;22.30;99.90
18043;DHT22;9146;48.074;11.968;2023-09-19T10:54:31;22.40;99.90
18043;DHT22;9146;48.074;11.968;2023-09-19T10:57:03;22.60;99.90
18043;DHT22;9146;48.074;11.968;2023-09-19T10:59:31;22.70;99.90
18043;DHT22;9146;48.074;11.968;2023-09-19T11:02:16;23.00;99.90
18043;DHT22;9146;48.074;11.968;2023-09-19T11:04:44;23.00;99.90
18043;DHT22;9146;48.074;11.968;2023-09-19T11:07:14;23.00;99.90
18043;DHT22;9146;48.074;11.968;2023-09-19T11:09:49;22.90;99.90
18043;DHT22;9146;48.074;11.968;2023-09-19T11:12:49;22.90;99.90
18043;DHT22;9146;48.074;11.968;2023-09-19T11:18:53;22.80;99.90
18043;DHT22;9146;48.074;11.968;2023-09-19T11:21:51;22.70;99.90
18043;DHT22;9146;48.074;11.968;2023-09-19T11:24:32;22.60;99.90
18043;DHT22;9146;48.074;11.968;2023-09-19T11:27:10;22.40;99.90
18043;DHT22;9146;48.074;11.968;2023-09-19T11:29:39;22.30;99.90
18043;DHT22;9146;48.074;11.968;2023-09-19T11:32:06;22.10;99.90
18043;DHT22;9146;48.074;11.968;2023-09-19T11:34:46;21.80;99.90
18043;DHT22;9146;48.074;11.968;2023-09-19T11:40:45;21.50;99.90
18043;DHT22;9146;48.074;11.968;2023-09-19T11:43:32;21.30;99.90
18043;DHT22;9146;48.074;11.968;2023-09-19T11:46:05;21.10;99.90
18043;DHT22;9146;48.074;11.968;2023-09-19T11:48:33;21.20;99.90
18043;DHT22;9146;48.074;11.968;2023-09-19T11:51:20;21.40;99.90
18043;DHT22;9146;48.074;11.968;2023-09-19T11:53:53;21.60;99.90
18043;DHT22;9146;48.074;11.968;2023-09-19T11:56:22;21.70;99.90
18043;DHT22;9146;48.074;11.968;2023-09-19T11:58:50;21.90;99.90
18043;DHT22;9146;48.074;11.968;2023-09-19T12:01:23;22.10;99.90
18043;DHT22;9146;48.074;11.968;2023-09-19T12:03:53;22.30;99.90
18043;DHT22;9146;48.074;11.968;2023-09-19T12:06:24;22.40;99.90
18043;DHT22;9146;48.074;11.968;2023-09-19T12:08:51;22.50;99.90
18043;DHT22;9146;48.074;11.968;2023-09-19T12:11:21;22.40;99.90
18043;DHT22;9146;48.074;11.968;2023-09-19T12:13:49;22.50;99.90
18043;DHT22;9146;48.074;11.968;2023-09-19T12:16:18;22.60;99.90
18043;DHT22;9146;48.074;11.968;2023-09-19T12:18:48;22.70;99.90
18043;DHT22;9146;48.074;11.968;2023-09-19T12:21:27;22.80;99.90
18043;DHT22;9146;48.074;11.968;2023-09-19T12:24:13;22.90;99.90
18043;DHT22;9146;48.074;11.968;2023-09-19T12:26:46;23.10;99.90
18043;DHT22;9146;48.074;11.968;2023-09-19T12:29:19;23.30;99.90
18043;DHT22;9146;48.074;11.968;2023-09-19T12:31:51;23.40;99.90
18043;DHT22;9146;48.074;11.968;2023-09-19T12:34:21;23.30;99.90
18043;DHT22;9146;48.074;11.968;2023-09-19T12:37:05;23.30;99.90
18043;DHT22;9146;48.074;11.968;2023-09-19T12:39:39;23.10;99.90
18043;DHT22;9146;48.074;11.968;2023-09-19T12:42:11;23.10;99.90
18043;DHT22;9146;48.074;11.968;2023-09-19T12:44:44;23.00;99.90
18043;DHT22;9146;48.074;11.968;2023-09-19T12:47:12;22.90;99.90
18043;DHT22;9146;48.074;11.968;2023-09-19T12:50:10;22.70;99.90
18043;DHT22;9146;48.074;11.968;2023-09-19T12:52:45;22.70;99.90
18043;DHT22;9146;48.074;11.968;2023-09-19T12:55:21;22.60;99.90
18043;DHT22;9146;48.074;11.968;2023-09-19T12:57:59;22.50;99.90
18043;DHT22;9146;48.074;11.968;2023-09-19T13:00:37;22.40;99.90
18043;DHT22;9146;48.074;11.968;2023-09-19T13:03:18;22.40;99.90
18043;DHT22;9146;48.074;11.968;2023-09-19T13:05:49;22.40;99.90
18043;DHT22;9146;48.074;11.968;2023-09-19T13:08:21;22.30;99.90
18043;DHT22;9146;48.074;11.968;2023-09-19T13:11:09;22.30;99.90
18043;DHT22;9146;48.074;11.968;2023-09-19T13:13:40;22.30;99.90
18043;DHT22;9146;48.074;11.968;2023-09-19T13:16:07;22.30;99.90
18043;DHT22;9146;48.074;11.968;2023-09-19T13:18:44;22.30;99.90
18043;DHT22;9146;48.074;11.968;2023-09-19T13:21:12;22.20;99.90
18043;DHT22;9146;48.074;11.968;2023-09-19T13:23:50;22.20;99.90
18043;DHT22;9146;48.074;11.968;2023-09-19T13:26:18;22.10;99.90
18043;DHT22;9146;48.074;11.968;2023-09-19T13:28:45;22.10;99.90
18043;DHT22;9146;48.074;11.968;2023-09-19T13:31:13;22.10;99.90
18043;DHT22;9146;48.074;11.968;2023-09-19T13:33:44;22.20;99.90
18043;DHT22;9146;48.074;11.968;2023-09-19T13:36:11;22.20;99.90
18043;DHT22;9146;48.074;11.968;2023-09-19T13:38:39;22.30;99.90
18043;DHT22;9146;48.074;11.968;2023-09-19T13:41:10;22.30;99.90
18043;DHT22;9146;48.074;11.968;2023-09-19T13:43:36;22.30;99.90
18043;DHT22;9146;48.074;11.968;2023-09-19T13:46:04;22.40;99.90
18043;DHT22;9146;48.074;11.968;2023-09-19T13:48:33;22.40;99.90
18043;DHT22;9146;48.074;11.968;2023-09-19T13:51:02;22.40;99.90
18043;DHT22;9146;48.074;11.968;2023-09-19T13:53:30;22.30;99.90
18043;DHT22;9146;48.074;11.968;2023-09-19T13:55:57;22.20;99.90
18043;DHT22;9146;48.074;11.968;2023-09-19T13:58:25;22.20;99.90
18043;DHT22;9146;48.074;11.968;2023-09-19T14:00:53;22.00;99.90
18043;DHT22;9146;48.074;11.968;2023-09-19T14:03:23;21.90;99.90
18043;DHT22;9146;48.074;11.968;2023-09-19T14:05:53;21.80;99.90
18043;DHT22;9146;48.074;11.968;2023-09-19T14:08:20;21.80;99.90
18043;DHT22;9146;48.074;11.968;2023-09-19T14:10:49;21.80;99.90
18043;DHT22;9146;48.074;11.968;2023-09-19T14:13:15;21.80;99.90
18043;DHT22;9146;48.074;11.968;2023-09-19T14:15:44;21.80;99.90
18043;DHT22;9146;48.074;11.968;2023-09-19T14:18:11;21.80;99.90
18043;DHT22;9146;48.074;11.968;2023-09-19T14:20:38;21.80;99.90
18043;DHT22;9146;48.074;11.968;2023-09-19T14:23:07;21.80;99.90
18043;DHT22;9146;48.074;11.968;2023-09-19T14:25:34;22.00;99.90
18043;DHT22;9146;48.074;11.968;2023-09-19T14:28:02;22.20;99.90
18043;DHT22;9146;48.074;11.968;2023-09-19T14:30:29;22.20;99.90
18043;DHT22;9146;48.074;11.968;2023-09-19T14:32:57;22.20;99.90
18043;DHT22;9146;48.074;11.968;2023-09-19T14:35:24;22.30;99.90
18043;DHT22;9146;48.074;11.968;2023-09-19T14:37:51;22.40;99.90
18043;DHT22;9146;48.074;11.968;2023-09-19T14:40:18;22.40;99.90
18043;DHT22;9146;48.074;11.968;2023-09-19T14:42:45;22.40;99.90
18043;DHT22;9146;48.074;11.968;2023-09-19T14:45:12;22.40;99.90
18043;DHT22;9146;48.074;11.968;2023-09-19T14:47:42;22.20;99.90
18043;DHT22;9146;48.074;11.968;2023-09-19T14:50:11;22.10;99.90
18043;DHT22;9146;48.074;11.968;2023-09-19T14:52:38;22.00;99.90
18043;DHT22;9146;48.074;11.968;2023-09-19T14:55:07;21.80;99.90
18043;DHT22;9146;48.074;11.968;2023-09-19T14:57:37;21.60;99.90
18043;DHT22;9146;48.074;11.968;2023-09-19T15:00:06;21.40;99.90
18043;DHT22;9146;48.074;11.968;2023-09-19T15:02:38;21.20;99.90
18043;DHT22;9146;48.074;11.968;2023-09-19T15:05:06;21.10;99.90
18043;DHT22;9146;48.074;11.968;2023-09-19T15:07:36;21.10;99.90
18043;DHT22;9146;48.074;11.968;2023-09-19T15:10:04;21.10;99.90
18043;DHT22;9146;48.074;11.968;2023-09-19T15:12:32;21.20;99.90
18043;DHT22;9146;48.074;11.968;2023-09-19T15:15:01;21.30;99.90
18043;DHT22;9146;48.074;11.968;2023-09-19T15:17:28;21.20;99.90
18043;DHT22;9146;48.074;11.968;2023-09-19T15:19:55;21.20;99.90
18043;DHT22;9146;48.074;11.968;2023-09-19T15:22:22;21.10;99.90
18043;DHT22;9146;48.074;11.968;2023-09-19T15:24:51;21.10;99.90
18043;DHT22;9146;48.074;11.968;2023-09-19T15:27:18;21.10;99.90
18043;DHT22;9146;48.074;11.968;2023-09-19T15:29:45;21.00;99.90
18043;DHT22;9146;48.074;11.968;2023-09-19T15:32:13;21.00;99.90
18043;DHT22;9146;48.074;11.968;2023-09-19T15:34:40;20.90;99.90
18043;DHT22;9146;48.074;11.968;2023-09-19T15:37:06;20.80;99.90
18043;DHT22;9146;48.074;11.968;2023-09-19T15:39:33;20.90;99.90
18043;DHT22;9146;48.074;11.968;2023-09-19T15:42:04;20.80;99.90
18043;DHT22;9146;48.074;11.968;2023-09-19T15:44:32;20.80;99.90
18043;DHT22;9146;48.074;11.968;2023-09-19T15:46:59;20.80;99.90
18043;DHT22;9146;48.074;11.968;2023-09-19T15:49:26;20.80;99.90
18043;DHT22;9146;48.074;11.968;2023-09-19T15:51:53;20.80;99.90
18043;DHT22;9146;48.074;11.968;2023-09-19T15:54:20;20.80;99.90